Time;durP1;ratioP1;P1;durP2;ratioP2;P2;SDS_P1;SDS_P2;PMS_P1;PMS_P2;Temp;Humidity;BMP_temperature;BMP_pressure;BME280_temperature;BME280_humidity;BME280_pressure;Samples;Min_cycle;Max_cycle;Signal;HPM_P1;HPM_P2
2023/08/24 00:02:01;;;;;;;2.00;1.40;;;23.30;1.00;;;;;;5095299;28;20428;-58
2023/08/24 00:04:28;;;;;;;1.38;1.20;;;23.30;1.00;;;;;;5094780;28;20432;-57
2023/08/24 00:06:56;;;;;;;1.90;1.35;;;23.20;1.00;;;;;;5113291;28;20419;-58
2023/08/24 00:09:23;;;;;;;1.60;1.30;;;23.20;1.00;;;;;;5113761;28;20599;-58
2023/08/24 00:11:50;;;;;;;2.30;1.30;;;23.10;1.00;;;;;;5115169;28;20493;-58
2023/08/24 00:14:17;;;;;;;2.40;1.50;;;23.10;1.00;;;;;;5115188;28;20424;-58
2023/08/24 00:16:45;;;;;;;1.40;1.30;;;23.10;1.00;;;;;;5115486;28;20485;-58
2023/08/24 00:19:12;;;;;;;2.20;1.48;;;23.20;1.00;;;;;;5114640;28;20424;-58
2023/08/24 00:21:39;;;;;;;2.25;1.40;;;23.10;1.00;;;;;;5114640;28;20685;-58
2023/08/24 00:24:07;;;;;;;2.00;1.30;;;23.10;1.00;;;;;;5114985;28;20794;-58
2023/08/24 00:26:34;;;;;;;1.70;1.40;;;22.90;1.00;;;;;;5115230;28;20481;-57
2023/08/24 00:29:01;;;;;;;1.50;1.25;;;22.90;1.00;;;;;;5115165;28;20424;-57
2023/08/24 00:31:28;;;;;;;1.80;1.50;;;22.90;1.00;;;;;;5114456;28;20443;-57
2023/08/24 00:33:56;;;;;;;2.30;1.58;;;22.90;1.00;;;;;;5115089;28;20431;-57
2023/08/24 00:36:24;;;;;;;2.50;1.50;;;22.90;1.00;;;;;;5114979;28;20416;-58
2023/08/24 00:38:53;;;;;;;1.88;1.50;;;22.80;21.40;;;;;;5115493;28;20693;-58
2023/08/24 00:41:21;;;;;;;1.85;1.30;;;22.80;83.40;;;;;;5114812;28;20420;-58
2023/08/24 00:43:50;;;;;;;1.80;1.40;;;22.80;44.40;;;;;;5114617;28;20438;-58
2023/08/24 00:46:17;;;;;;;1.90;1.50;;;22.60;93.00;;;;;;5114314;28;21007;-59
2023/08/24 00:48:44;;;;;;;1.60;1.20;;;22.60;99.90;;;;;;5114074;28;20420;-58
2023/08/24 00:51:12;;;;;;;2.35;1.40;;;22.50;99.90;;;;;;5114011;28;20428;-58
2023/08/24 00:53:39;;;;;;;2.17;1.33;;;22.50;99.90;;;;;;5116057;28;20600;-58
2023/08/24 00:56:07;;;;;;;1.70;1.20;;;22.60;99.90;;;;;;5118730;28;20424;-59
2023/08/24 00:58:34;;;;;;;3.60;1.60;;;22.60;99.90;;;;;;5118300;28;20416;-58
2023/08/24 01:01:01;;;;;;;2.00;1.60;;;22.60;99.90;;;;;;5118116;28;20413;-58
2023/08/24 01:03:32;;;;;;;2.20;1.23;;;22.60;99.90;;;;;;5116648;28;20443;-58
2023/08/24 01:05:59;;;;;;;1.60;1.30;;;22.60;53.00;;;;;;5116874;28;20412;-58
2023/08/24 01:08:27;;;;;;;2.40;1.40;;;22.50;29.10;;;;;;5117465;28;20427;-58
2023/08/24 01:11:05;;;;;;;1.50;1.40;;;22.40;99.90;;;;;;5098790;28;20451;-58
2023/08/24 01:13:51;;;;;;;1.55;1.40;;;22.20;1.00;;;;;;5116188;28;20431;-58
2023/08/24 01:16:21;;;;;;;2.90;1.50;;;22.10;1.00;;;;;;5116854;28;20420;-59
2023/08/24 01:18:49;;;;;;;2.33;1.30;;;22.20;1.00;;;;;;5115841;28;20473;-58
2023/08/24 01:21:17;;;;;;;1.50;1.40;;;22.20;1.00;;;;;;5116385;28;20412;-58
2023/08/24 01:23:58;;;;;;;2.10;1.30;;;22.10;1.00;;;;;;5116749;28;20467;-58
2023/08/24 01:26:28;;;;;;;1.50;1.40;;;22.10;1.00;;;;;;5115809;28;20431;-58
2023/08/24 01:28:55;;;;;;;1.60;1.50;;;22.10;1.00;;;;;;5116320;28;20430;-58
2023/08/24 01:31:22;;;;;;;2.63;1.33;;;22.20;1.00;;;;;;5116063;28;20929;-58
2023/08/24 01:33:49;;;;;;;1.70;1.30;;;22.20;1.00;;;;;;5116174;28;20412;-58
2023/08/24 01:36:17;;;;;;;2.60;1.40;;;22.20;1.00;;;;;;5116435;28;20520;-58
2023/08/24 01:38:48;;;;;;;1.70;1.50;;;22.20;1.00;;;;;;5117063;28;20419;-58
2023/08/24 01:41:19;;;;;;;2.60;1.60;;;22.30;1.00;;;;;;5117387;28;20460;-58
2023/08/24 01:43:52;;;;;;;3.53;1.70;;;22.20;1.00;;;;;;5117439;28;20431;-58
2023/08/24 01:46:22;;;;;;;1.55;1.45;;;22.10;31.00;;;;;;5117632;28;20510;-57
2023/08/24 01:48:50;;;;;;;3.10;2.10;;;22.10;1.00;;;;;;5117314;28;20412;-58
2023/08/24 01:51:18;;;;;;;3.30;1.80;;;22.10;1.00;;;;;;5117377;28;20432;-58
2023/08/24 01:53:46;;;;;;;2.80;2.00;;;22.10;1.00;;;;;;5117014;28;20420;-59
2023/08/24 01:56:14;;;;;;;1.88;1.75;;;22.10;1.00;;;;;;5116622;28;20424;-57
2023/08/24 01:58:41;;;;;;;3.20;2.00;;;22.00;1.00;;;;;;5116619;28;20457;-58
2023/08/24 02:01:10;;;;;;;3.80;1.70;;;22.00;1.00;;;;;;5117188;28;20420;-58
2023/08/24 02:03:38;;;;;;;5.00;1.55;;;22.20;1.00;;;;;;5116407;28;20731;-58
2023/08/24 02:06:06;;;;;;;1.73;1.60;;;22.30;99.90;;;;;;5116947;28;20438;-58
2023/08/24 02:08:33;;;;;;;2.10;1.90;;;22.20;99.90;;;;;;5116425;28;20427;-58
2023/08/24 02:11:00;;;;;;;1.65;1.55;;;22.20;99.90;;;;;;5116855;28;20510;-57
2023/08/24 02:13:27;;;;;;;2.67;1.70;;;22.20;99.90;;;;;;5116754;28;20427;-58
2023/08/24 02:16:03;;;;;;;2.28;1.50;;;22.20;99.90;;;;;;5116984;28;20479;-59
2023/08/24 02:18:31;;;;;;;1.98;1.63;;;22.40;53.60;;;;;;5116426;28;20529;-58
2023/08/24 02:20:58;;;;;;;3.45;1.70;;;22.40;1.00;;;;;;5116316;28;20761;-58
2023/08/24 02:23:25;;;;;;;2.00;1.70;;;22.30;1.00;;;;;;5116343;28;20428;-58
2023/08/24 02:25:52;;;;;;;1.65;1.55;;;22.20;87.90;;;;;;5115261;28;20473;-58
2023/08/24 02:28:19;;;;;;;2.17;1.50;;;22.10;99.90;;;;;;5116274;28;20427;-58
2023/08/24 02:30:46;;;;;;;2.03;1.83;;;22.00;1.00;;;;;;5116277;28;20758;-58
2023/08/24 02:33:13;;;;;;;2.40;1.80;;;21.90;71.50;;;;;;5116500;28;20428;-58
2023/08/24 02:35:43;;;;;;;1.80;1.70;;;21.80;1.00;;;;;;5115839;28;20481;-58
2023/08/24 02:38:10;;;;;;;1.63;1.52;;;21.90;1.00;;;;;;5114521;28;20423;-58
2023/08/24 02:40:37;;;;;;;2.40;1.70;;;21.90;1.00;;;;;;5116273;28;20427;-58
2023/08/24 02:43:04;;;;;;;1.98;1.77;;;21.90;99.90;;;;;;5116298;28;20477;-58
2023/08/24 02:45:31;;;;;;;2.30;1.70;;;22.00;42.00;;;;;;5098144;28;20480;-57
2023/08/24 02:47:58;;;;;;;2.40;1.70;;;22.00;99.90;;;;;;5115656;28;20447;-58
2023/08/24 02:50:26;;;;;;;3.70;1.80;;;22.00;1.00;;;;;;5116129;28;20424;-58
2023/08/24 02:52:54;;;;;;;1.70;1.60;;;22.00;1.00;;;;;;5107694;28;20441;-58
2023/08/24 02:55:21;;;;;;;2.10;1.73;;;22.10;1.00;;;;;;5116061;28;20720;-58
2023/08/24 02:57:48;;;;;;;2.25;1.40;;;22.10;93.80;;;;;;5097337;28;20425;-58
2023/08/24 03:00:15;;;;;;;2.42;1.80;;;22.10;1.00;;;;;;5115974;28;20823;-58
2023/08/24 03:02:42;;;;;;;1.92;1.73;;;22.10;1.00;;;;;;5116200;28;20423;-58
2023/08/24 03:05:09;;;;;;;3.10;1.67;;;22.10;1.00;;;;;;5115738;28;20424;-58
2023/08/24 03:07:36;;;;;;;1.80;1.50;;;22.10;99.90;;;;;;5113444;28;20494;-58
2023/08/24 03:10:09;;;;;;;2.40;2.20;;;22.10;1.00;;;;;;5113123;28;20481;-57
2023/08/24 03:12:36;;;;;;;3.60;1.70;;;22.00;99.90;;;;;;5114041;28;20535;-58
2023/08/24 03:15:04;;;;;;;3.60;1.83;;;22.00;99.90;;;;;;5114086;28;20835;-57
2023/08/24 03:17:31;;;;;;;2.23;1.80;;;22.10;1.00;;;;;;5114108;28;20457;-58
2023/08/24 03:19:58;;;;;;;2.28;1.95;;;22.10;1.00;;;;;;5113991;28;20423;-57
2023/08/24 03:22:25;;;;;;;2.25;2.05;;;22.00;5.50;;;;;;5094662;28;20421;-58
2023/08/24 03:24:52;;;;;;;2.30;1.80;;;21.90;99.90;;;;;;5114027;28;20450;-58
2023/08/24 03:27:20;;;;;;;2.10;1.83;;;21.80;1.00;;;;;;5113177;28;20411;-58
2023/08/24 03:29:47;;;;;;;2.50;1.60;;;21.90;1.00;;;;;;5112929;28;20419;-58
2023/08/24 03:32:14;;;;;;;2.20;1.60;;;22.00;1.00;;;;;;5113989;28;20500;-58
2023/08/24 03:34:41;;;;;;;2.00;1.50;;;22.00;1.00;;;;;;5115094;28;20474;-58
2023/08/24 03:37:08;;;;;;;2.00;1.80;;;22.10;99.90;;;;;;5114979;28;20424;-59
2023/08/24 03:39:37;;;;;;;2.90;2.15;;;22.00;99.90;;;;;;5114527;28;20420;-58
2023/08/24 03:42:04;;;;;;;2.60;1.90;;;22.00;99.90;;;;;;5115267;28;20739;-58
2023/08/24 03:44:36;;;;;;;1.92;1.67;;;21.90;1.00;;;;;;5115311;28;20434;-58
2023/08/24 03:47:03;;;;;;;2.17;1.80;;;21.80;1.00;;;;;;5115688;28;20439;-58
2023/08/24 03:49:30;;;;;;;2.30;1.70;;;21.80;99.90;;;;;;5114914;28;20783;-58
2023/08/24 03:51:57;;;;;;;1.87;1.67;;;21.70;29.00;;;;;;5115300;28;20439;-58
2023/08/24 03:54:24;;;;;;;2.00;1.60;;;21.70;99.90;;;;;;5114440;28;20451;-58
2023/08/24 03:56:51;;;;;;;2.05;1.85;;;21.50;1.00;;;;;;5114591;28;20420;-58
2023/08/24 03:59:18;;;;;;;2.40;1.90;;;21.50;99.90;;;;;;5114494;28;20490;-58
2023/08/24 04:01:46;;;;;;;3.20;2.15;;;21.50;99.90;;;;;;5114884;28;20435;-58
2023/08/24 04:04:14;;;;;;;1.70;1.60;;;21.40;99.90;;;;;;5113967;28;20836;-58
2023/08/24 04:06:40;;;;;;;2.20;2.00;;;21.40;99.90;;;;;;5114182;28;20416;-58
2023/08/24 04:09:09;;;;;;;2.50;1.90;;;21.50;99.90;;;;;;5114339;28;20420;-56
2023/08/24 04:11:36;;;;;;;2.20;1.80;;;21.50;99.90;;;;;;5114456;28;20541;-58
2023/08/24 04:14:03;;;;;;;3.97;2.58;;;21.50;99.90;;;;;;5114988;28;20428;-58
2023/08/24 04:16:30;;;;;;;1.90;1.70;;;21.50;99.90;;;;;;5115237;28;20447;-58
2023/08/24 04:18:58;;;;;;;2.90;2.00;;;21.50;99.90;;;;;;5113396;28;20469;-58
2023/08/24 04:21:25;;;;;;;3.80;2.00;;;21.60;99.90;;;;;;5113728;28;20419;-58
2023/08/24 04:23:52;;;;;;;3.55;1.90;;;21.60;99.90;;;;;;5114909;28;20420;-58
2023/08/24 04:26:19;;;;;;;2.20;2.00;;;21.60;99.90;;;;;;5114415;28;20922;-58
2023/08/24 04:28:46;;;;;;;2.60;1.90;;;21.60;99.90;;;;;;5115187;28;20518;-58
2023/08/24 04:31:13;;;;;;;2.60;2.10;;;21.60;99.90;;;;;;5118380;28;20424;-58
2023/08/24 04:33:40;;;;;;;2.03;1.83;;;21.70;99.90;;;;;;5117099;28;20976;-58
2023/08/24 04:36:09;;;;;;;2.40;2.20;;;21.80;95.90;;;;;;5116940;28;20419;-58
2023/08/24 04:38:36;;;;;;;3.83;2.60;;;21.80;49.10;;;;;;5118188;28;20474;-59
2023/08/24 04:41:07;;;;;;;2.40;2.20;;;21.70;99.90;;;;;;5117819;28;20420;-58
2023/08/24 04:43:34;;;;;;;2.05;1.95;;;21.80;99.90;;;;;;5117149;28;20721;-58
2023/08/24 04:46:01;;;;;;;2.78;2.58;;;21.80;99.90;;;;;;5117062;28;20416;-58
2023/08/24 04:48:32;;;;;;;4.05;2.30;;;21.80;1.00;;;;;;5115715;28;20443;-58
2023/08/24 04:50:59;;;;;;;2.47;2.28;;;21.80;1.00;;;;;;5114852;28;20570;-58
2023/08/24 04:53:28;;;;;;;2.20;2.00;;;21.80;18.60;;;;;;5115309;28;20445;-58
2023/08/24 04:55:55;;;;;;;2.97;2.50;;;21.80;18.80;;;;;;5116015;28;20915;-58
2023/08/24 04:58:23;;;;;;;2.50;2.30;;;21.70;99.90;;;;;;5113657;28;20781;-58
2023/08/24 05:00:50;;;;;;;3.08;2.88;;;21.70;99.90;;;;;;5114952;28;20727;-59
2023/08/24 05:03:17;;;;;;;2.20;2.00;;;21.80;99.90;;;;;;5115459;28;20423;-58
2023/08/24 05:05:44;;;;;;;3.60;2.10;;;21.80;1.00;;;;;;5115055;28;20486;-58
2023/08/24 05:08:11;;;;;;;3.50;1.90;;;21.90;10.30;;;;;;5115629;28;20484;-58
2023/08/24 05:10:39;;;;;;;3.42;3.10;;;21.90;1.00;;;;;;5116231;28;20436;-58
2023/08/24 05:13:06;;;;;;;2.08;1.80;;;22.10;1.00;;;;;;5116749;28;20916;-58
2023/08/24 05:15:33;;;;;;;2.60;2.40;;;22.20;1.00;;;;;;5116841;28;20781;-58
2023/08/24 05:18:00;;;;;;;2.60;2.40;;;22.30;99.90;;;;;;5116981;28;20476;-58
2023/08/24 05:20:27;;;;;;;2.60;1.60;;;22.20;99.90;;;;;;5116516;28;20424;-57
2023/08/24 05:22:55;;;;;;;1.70;1.60;;;22.20;1.00;;;;;;5117293;28;20504;-57
2023/08/24 05:25:23;;;;;;;1.80;1.50;;;22.10;1.00;;;;;;5116965;28;20463;-57
2023/08/24 05:27:51;;;;;;;2.40;1.63;;;22.20;1.00;;;;;;5117073;28;20404;-58
2023/08/24 05:30:18;;;;;;;2.90;1.50;;;22.10;1.00;;;;;;5116499;28;20435;-57
2023/08/24 05:32:45;;;;;;;2.00;1.70;;;22.20;1.00;;;;;;5116734;28;20973;-58
2023/08/24 05:35:15;;;;;;;3.13;1.50;;;22.30;99.90;;;;;;5116220;28;20482;-56
2023/08/24 05:37:42;;;;;;;1.90;1.40;;;22.50;1.00;;;;;;5116477;28;20424;-58
2023/08/24 05:40:10;;;;;;;2.70;1.30;;;22.60;1.00;;;;;;5114797;28;20428;-57
2023/08/24 05:42:37;;;;;;;2.53;1.40;;;22.70;1.00;;;;;;5116009;28;20412;-57
2023/08/24 05:45:07;;;;;;;1.90;1.58;;;22.70;1.00;;;;;;5117118;28;20420;-58
2023/08/24 05:47:34;;;;;;;2.30;1.30;;;22.80;99.90;;;;;;5116287;28;20497;-57
2023/08/24 05:50:01;;;;;;;2.00;1.50;;;22.80;99.90;;;;;;5115757;28;20419;-58
2023/08/24 05:52:28;;;;;;;1.70;1.42;;;22.90;99.90;;;;;;5113446;28;20836;-58
2023/08/24 05:54:55;;;;;;;1.40;1.25;;;22.90;99.90;;;;;;5114149;28;20505;-58
2023/08/24 05:57:22;;;;;;;1.88;1.40;;;22.90;99.90;;;;;;5116859;28;20493;-58
2023/08/24 05:59:49;;;;;;;1.73;1.60;;;23.00;99.90;;;;;;5117011;27;20481;-58
2023/08/24 06:02:17;;;;;;;2.90;1.50;;;22.90;85.40;;;;;;5135708;27;20558;-58
2023/08/24 06:04:44;;;;;;;1.50;1.40;;;22.80;91.70;;;;;;5136382;27;20419;-59
2023/08/24 06:07:11;;;;;;;1.60;1.50;;;22.80;99.90;;;;;;5131410;27;20522;-58
2023/08/24 06:09:38;;;;;;;1.50;1.30;;;22.80;99.90;;;;;;5132986;27;20479;-58
2023/08/24 06:12:06;;;;;;;2.60;1.20;;;23.00;85.60;;;;;;5113988;27;20431;-57
2023/08/24 06:14:33;;;;;;;1.60;1.30;;;23.20;53.40;;;;;;5116913;27;20516;-57
2023/08/24 06:17:00;;;;;;;3.00;1.30;;;23.30;1.00;;;;;;5130617;27;20423;-56
2023/08/24 06:19:28;;;;;;;2.20;1.33;;;23.30;1.00;;;;;;5129554;27;20506;-57
2023/08/24 06:21:55;;;;;;;2.05;1.23;;;23.40;1.00;;;;;;5130812;27;20738;-57
2023/08/24 06:24:22;;;;;;;2.40;1.60;;;23.40;1.00;;;;;;5131621;27;20791;-58
2023/08/24 06:26:49;;;;;;;2.00;1.30;;;23.40;1.00;;;;;;5116407;27;20493;-58
2023/08/24 06:29:16;;;;;;;2.60;1.50;;;23.40;1.00;;;;;;5112700;28;20424;-58
2023/08/24 06:31:43;;;;;;;1.55;1.20;;;23.20;1.00;;;;;;5113129;28;20696;-57
2023/08/24 06:34:11;;;;;;;1.42;1.33;;;23.30;1.00;;;;;;5114345;28;20443;-57
2023/08/24 06:36:39;;;;;;;2.00;1.50;;;23.20;1.00;;;;;;5125989;27;20422;-57
2023/08/24 06:39:06;;;;;;;1.50;1.40;;;23.10;1.00;;;;;;5125146;27;20779;-56
2023/08/24 06:41:35;;;;;;;3.40;1.30;;;23.10;1.00;;;;;;5116529;27;20432;-58
2023/08/24 06:44:02;;;;;;;1.90;1.40;;;23.20;1.00;;;;;;5114533;28;20424;-57
2023/08/24 06:46:29;;;;;;;1.60;1.33;;;23.30;1.00;;;;;;5121518;27;20430;-56
2023/08/24 06:48:56;;;;;;;3.80;1.60;;;23.40;1.00;;;;;;5135447;27;20612;-58
2023/08/24 06:51:23;;;;;;;1.70;1.30;;;23.50;1.00;;;;;;5121172;27;20473;-58
2023/08/24 06:53:52;;;;;;;2.30;1.40;;;23.40;1.00;;;;;;5122361;27;20438;-58
2023/08/24 06:56:19;;;;;;;2.10;1.20;;;23.20;1.00;;;;;;5133679;27;20914;-58
2023/08/24 06:58:46;;;;;;;2.50;1.20;;;23.20;1.00;;;;;;5134183;27;20424;-58
2023/08/24 07:01:13;;;;;;;2.35;1.30;;;23.30;1.00;;;;;;5128258;27;20793;-58
2023/08/24 07:03:40;;;;;;;1.67;1.20;;;23.60;1.00;;;;;;5119329;27;20482;-58
2023/08/24 07:06:07;;;;;;;2.40;1.38;;;23.70;1.00;;;;;;5134109;27;20471;-58
2023/08/24 07:08:35;;;;;;;3.17;1.30;;;23.70;1.00;;;;;;5125190;27;20518;-58
2023/08/24 07:11:03;;;;;;;1.88;1.33;;;23.80;1.00;;;;;;5127629;27;20533;-58
2023/08/24 07:13:30;;;;;;;3.92;1.30;;;24.00;1.00;;;;;;5133844;27;20434;-59
2023/08/24 07:15:57;;;;;;;1.40;1.20;;;24.20;1.00;;;;;;5132792;27;20415;-59
2023/08/24 07:18:25;;;;;;;1.77;1.30;;;24.40;1.00;;;;;;5134278;27;20410;-58
2023/08/24 07:20:52;;;;;;;2.30;1.20;;;24.40;1.00;;;;;;5131452;27;20761;-59
2023/08/24 07:23:19;;;;;;;1.95;1.40;;;24.40;1.00;;;;;;5112432;28;20428;-58
2023/08/24 07:25:46;;;;;;;3.05;1.40;;;24.50;1.00;;;;;;5113156;28;20485;-57
2023/08/24 07:28:14;;;;;;;1.80;1.30;;;24.50;99.90;;;;;;5113998;28;20788;-57
2023/08/24 07:30:41;;;;;;;1.80;1.30;;;24.50;99.90;;;;;;5112826;28;20412;-56
2023/08/24 07:33:08;;;;;;;2.63;1.30;;;24.60;99.90;;;;;;5110092;27;20707;-55
2023/08/24 07:35:35;;;;;;;1.83;1.40;;;24.70;99.90;;;;;;5112151;28;20916;-56
2023/08/24 07:38:04;;;;;;;3.10;1.50;;;24.60;99.90;;;;;;5113558;28;20424;-59
2023/08/24 07:40:31;;;;;;;4.88;2.20;;;24.50;1.00;;;;;;5112586;28;20446;-58
2023/08/24 07:42:59;;;;;;;3.90;2.10;;;24.30;1.00;;;;;;5114349;28;20477;-58
2023/08/24 07:45:28;;;;;;;2.90;2.10;;;24.30;1.00;;;;;;5130602;27;20821;-58
2023/08/24 07:47:55;;;;;;;2.60;1.90;;;24.40;1.00;;;;;;5122771;27;20752;-58
2023/08/24 07:50:23;;;;;;;4.07;1.95;;;24.30;1.00;;;;;;5123764;28;20433;-57
2023/08/24 07:52:50;;;;;;;3.25;2.20;;;24.30;1.00;;;;;;5133468;28;20418;-58
2023/08/24 07:55:17;;;;;;;3.38;2.00;;;24.30;1.00;;;;;;5112998;28;20656;-58
2023/08/24 07:57:44;;;;;;;2.17;1.85;;;24.50;1.00;;;;;;5111456;28;20492;-58
2023/08/24 08:00:13;;;;;;;2.27;1.93;;;24.60;1.00;;;;;;5110021;28;20878;-58
2023/08/24 08:02:42;;;;;;;2.50;2.10;;;24.50;1.00;;;;;;5125831;27;20853;-57
2023/08/24 08:05:10;;;;;;;3.20;1.90;;;24.60;1.00;;;;;;5120972;27;20439;-56
2023/08/24 08:07:37;;;;;;;2.10;1.90;;;24.50;1.00;;;;;;5117263;28;20431;-56
2023/08/24 08:10:06;;;;;;;2.30;1.52;;;24.70;1.00;;;;;;5115351;27;20504;-51
2023/08/24 08:12:33;;;;;;;3.50;2.03;;;24.90;1.00;;;;;;5131447;27;20511;-55
2023/08/24 08:15:00;;;;;;;2.60;1.95;;;25.00;99.90;;;;;;5135152;27;20437;-57
2023/08/24 08:17:30;;;;;;;2.38;1.92;;;25.00;99.90;;;;;;5136333;27;20479;-58
2023/08/24 08:19:58;;;;;;;2.20;2.00;;;25.10;99.90;;;;;;5137929;27;20528;-59
2023/08/24 08:22:26;;;;;;;3.00;2.10;;;25.20;99.90;;;;;;5117940;28;20424;-59
2023/08/24 08:24:53;;;;;;;3.40;2.50;;;25.30;99.90;;;;;;5117367;28;20444;-59
2023/08/24 08:27:21;;;;;;;2.42;1.50;;;25.40;99.90;;;;;;5118462;27;20424;-57
2023/08/24 08:29:48;;;;;;;3.33;1.70;;;25.60;99.90;;;;;;5114850;28;20420;-58
2023/08/24 08:32:15;;;;;;;2.50;1.50;;;25.50;99.90;;;;;;5113887;28;20424;-57
2023/08/24 08:34:42;;;;;;;2.28;1.60;;;25.50;99.90;;;;;;5115961;28;20501;-58
2023/08/24 08:37:11;;;;;;;2.28;1.63;;;25.70;99.90;;;;;;5120749;27;20434;-58
2023/08/24 08:39:38;;;;;;;2.00;1.67;;;25.80;99.90;;;;;;5136491;27;20894;-58
2023/08/24 08:42:05;;;;;;;2.00;1.50;;;25.60;99.90;;;;;;5136234;27;20470;-58
2023/08/24 08:44:33;;;;;;;3.00;1.40;;;25.60;99.90;;;;;;5133241;27;20426;-59
2023/08/24 08:47:00;;;;;;;2.45;1.33;;;25.80;99.90;;;;;;5133373;27;20472;-58
2023/08/24 08:49:27;;;;;;;2.10;1.50;;;25.90;99.90;;;;;;5117704;27;20490;-59
2023/08/24 08:51:54;;;;;;;2.70;2.00;;;26.00;99.90;;;;;;5116509;28;20484;-58
2023/08/24 08:54:23;;;;;;;2.40;1.70;;;26.10;99.90;;;;;;5115705;28;20580;-58
2023/08/24 08:56:51;;;;;;;2.08;1.60;;;26.30;89.20;;;;;;5115967;28;20424;-58
2023/08/24 08:59:18;;;;;;;2.20;1.70;;;26.40;56.90;;;;;;5117095;27;20424;-58
2023/08/24 09:01:50;;;;;;;1.38;1.20;;;26.50;22.80;;;;;;5116861;28;20734;-59
2023/08/24 09:04:18;;;;;;;2.75;1.30;;;26.50;26.50;;;;;;5126217;27;20441;-58
2023/08/24 09:06:45;;;;;;;2.25;1.30;;;26.50;22.10;;;;;;5134017;27;20445;-57
2023/08/24 09:09:13;;;;;;;2.80;1.50;;;26.70;7.90;;;;;;5108188;28;20426;-58
2023/08/24 09:11:42;;;;;;;2.30;1.30;;;26.70;1.00;;;;;;5118776;27;20430;-57
2023/08/24 09:14:09;;;;;;;3.20;1.40;;;26.60;1.00;;;;;;5112944;27;20777;-58
2023/08/24 09:16:36;;;;;;;1.97;1.30;;;26.70;1.00;;;;;;5117305;27;20522;-58
2023/08/24 09:19:07;;;;;;;1.80;1.30;;;26.90;1.00;;;;;;5115845;27;20484;-58
2023/08/24 09:21:38;;;;;;;1.50;1.30;;;27.00;1.00;;;;;;5117146;27;20483;-59
2023/08/24 09:24:07;;;;;;;2.30;1.30;;;27.10;1.00;;;;;;5132625;27;20487;-56
2023/08/24 09:26:36;;;;;;;2.00;1.30;;;27.20;1.00;;;;;;5133801;27;20495;-59
2023/08/24 09:29:12;;;;;;;1.90;1.20;;;27.40;1.00;;;;;;5132358;27;20415;-57
2023/08/24 09:31:40;;;;;;;2.00;1.40;;;27.50;1.00;;;;;;5129024;27;20418;-58
2023/08/24 09:34:08;;;;;;;1.77;1.42;;;27.40;1.00;;;;;;5112663;28;20844;-58
2023/08/24 09:36:35;;;;;;;3.70;1.30;;;27.30;1.00;;;;;;5114360;28;20416;-58
2023/08/24 09:39:04;;;;;;;1.50;1.30;;;27.20;1.00;;;;;;5116212;28;20477;-59
2023/08/24 09:41:41;;;;;;;1.80;1.30;;;27.40;1.00;;;;;;5113416;28;20424;-59
2023/08/24 09:44:10;;;;;;;1.40;1.30;;;27.70;1.00;;;;;;5114331;28;20416;-58
2023/08/24 09:46:38;;;;;;;3.75;1.90;;;27.90;1.00;;;;;;5116358;28;20448;-61
2023/08/24 09:49:07;;;;;;;2.22;1.20;;;28.00;1.00;;;;;;5115536;28;20778;-61
2023/08/24 09:51:35;;;;;;;1.40;1.30;;;27.80;1.00;;;;;;5112945;28;20412;-61
2023/08/24 09:54:08;;;;;;;2.35;1.45;;;27.90;1.00;;;;;;5110642;28;20907;-61
2023/08/24 09:56:37;;;;;;;1.75;1.42;;;28.10;1.00;;;;;;5114919;28;20424;-61
2023/08/24 09:59:14;;;;;;;2.33;1.30;;;28.20;1.00;;;;;;5114030;28;20536;-61
2023/08/24 10:01:44;;;;;;;2.50;1.30;;;28.40;1.00;;;;;;5112476;28;20455;-61
2023/08/24 10:04:13;;;;;;;2.50;1.60;;;28.60;1.00;;;;;;5111942;28;20488;-61
2023/08/24 10:06:40;;;;;;;1.60;1.33;;;28.80;1.00;;;;;;5113003;28;20528;-62
2023/08/24 10:09:12;;;;;;;1.50;1.20;;;28.80;1.00;;;;;;5113604;28;20412;-62
2023/08/24 10:11:44;;;;;;;1.70;1.50;;;29.00;1.00;;;;;;5113432;28;20428;-61
2023/08/24 10:14:19;;;;;;;1.70;1.60;;;29.20;1.00;;;;;;5112831;28;20436;-60
2023/08/24 10:16:48;;;;;;;2.63;1.60;;;29.40;1.00;;;;;;5115903;28;20420;-60
2023/08/24 10:19:15;;;;;;;4.20;2.00;;;29.50;1.00;;;;;;5113605;28;20835;-61
2023/08/24 10:21:43;;;;;;;2.03;1.40;;;29.50;1.00;;;;;;5113659;28;20895;-61
2023/08/24 10:24:12;;;;;;;2.70;1.80;;;29.90;1.00;;;;;;5112095;28;20598;-61
2023/08/24 10:26:40;;;;;;;1.92;1.50;;;30.00;1.00;;;;;;5112382;28;20754;-62
2023/08/24 10:29:08;;;;;;;2.10;1.30;;;30.30;1.00;;;;;;5113680;28;20432;-61
2023/08/24 10:31:37;;;;;;;1.60;1.50;;;30.60;1.00;;;;;;5114796;28;20589;-61
2023/08/24 10:34:07;;;;;;;2.17;1.40;;;30.70;1.00;;;;;;5114387;28;20439;-62
2023/08/24 10:36:39;;;;;;;1.75;1.52;;;31.00;1.00;;;;;;5112737;28;20452;-63
2023/08/24 10:39:07;;;;;;;2.00;1.40;;;31.20;1.00;;;;;;5110003;28;20915;-61
2023/08/24 10:41:50;;;;;;;1.40;1.30;;;31.50;1.00;;;;;;5112365;28;20428;-62
2023/08/24 10:44:25;;;;;;;2.72;1.50;;;31.70;1.00;;;;;;5111129;28;20421;-62
2023/08/24 10:47:13;;;;;;;2.40;1.30;;;31.60;1.00;;;;;;5112245;28;20442;-62
2023/08/24 10:49:41;;;;;;;2.10;1.40;;;31.80;1.00;;;;;;5113172;28;20727;-62
2023/08/24 10:52:21;;;;;;;3.10;1.52;;;31.80;1.00;;;;;;5113171;28;20835;-62
2023/08/24 10:54:49;;;;;;;3.60;1.65;;;31.80;1.00;;;;;;5113871;28;20435;-62
2023/08/24 10:57:21;;;;;;;1.63;1.45;;;32.00;1.00;;;;;;5114916;28;20419;-63
2023/08/24 11:00:00;;;;;;;2.13;1.40;;;32.40;1.00;;;;;;5113318;28;20412;-63
2023/08/24 11:02:28;;;;;;;1.50;1.35;;;32.60;1.00;;;;;;5112661;28;20515;-63
2023/08/24 11:05:15;;;;;;;2.20;1.50;;;32.70;1.00;;;;;;5112512;28;20412;-63
2023/08/24 11:07:53;;;;;;;1.75;1.40;;;32.70;1.00;;;;;;5113986;28;20420;-63
2023/08/24 11:10:21;;;;;;;1.73;1.40;;;32.90;1.00;;;;;;5115071;28;20427;-63
2023/08/24 11:13:16;;;;;;;2.03;1.45;;;33.00;1.00;;;;;;5113797;28;20675;-65
2023/08/24 11:15:44;;;;;;;1.40;1.20;;;33.20;1.00;;;;;;5111623;28;20420;-62
2023/08/24 11:18:24;;;;;;;2.08;1.70;;;33.50;1.00;;;;;;5114334;28;20412;-63
2023/08/24 11:20:53;;;;;;;1.70;1.40;;;33.50;1.00;;;;;;5115048;28;20465;-62
2023/08/24 11:23:22;;;;;;;1.90;1.70;;;33.50;1.00;;;;;;5114016;28;20489;-64
2023/08/24 11:25:51;;;;;;;1.90;1.60;;;33.60;1.00;;;;;;5114849;28;20421;-63
2023/08/24 11:28:19;;;;;;;1.77;1.67;;;33.50;1.00;;;;;;5113887;28;20539;-63
2023/08/24 11:30:47;;;;;;;1.60;1.50;;;33.20;1.00;;;;;;5113744;28;20519;-63
2023/08/24 11:33:17;;;;;;;3.10;1.50;;;33.70;1.00;;;;;;5112595;28;20457;-63
2023/08/24 11:35:45;;;;;;;2.63;2.10;;;33.80;1.00;;;;;;5113435;28;20746;-63
2023/08/24 11:38:12;;;;;;;2.50;1.70;;;34.00;1.00;;;;;;5113182;28;20428;-62
2023/08/24 11:40:39;;;;;;;1.83;1.40;;;34.10;1.00;;;;;;5113543;28;20770;-64
2023/08/24 11:43:06;;;;;;;2.60;1.50;;;33.80;1.00;;;;;;5113484;28;20420;-63
2023/08/24 11:45:36;;;;;;;2.00;1.50;;;33.90;1.00;;;;;;5112430;28;20481;-62
2023/08/24 11:48:05;;;;;;;1.60;1.50;;;34.00;1.00;;;;;;5113505;28;20424;-64
2023/08/24 11:50:35;;;;;;;1.85;1.38;;;34.10;1.00;;;;;;5113084;28;20447;-63
2023/08/24 11:53:02;;;;;;;1.55;1.38;;;34.10;1.00;;;;;;5113721;28;20487;-62
2023/08/24 11:55:29;;;;;;;2.40;1.40;;;34.10;1.00;;;;;;5113888;28;20467;-65
2023/08/24 11:57:56;;;;;;;2.10;1.55;;;34.10;1.00;;;;;;5113793;28;20439;-62
2023/08/24 12:00:24;;;;;;;2.20;1.52;;;34.30;1.00;;;;;;5114454;28;20416;-61
2023/08/24 12:02:51;;;;;;;1.70;1.40;;;34.30;1.00;;;;;;5113941;28;20416;-61
2023/08/24 12:05:23;;;;;;;1.92;1.40;;;33.90;1.00;;;;;;5109625;28;20832;-62
2023/08/24 12:07:53;;;;;;;1.48;1.30;;;33.50;1.00;;;;;;5111165;28;20493;-62
2023/08/24 12:10:20;;;;;;;2.05;1.30;;;33.60;1.00;;;;;;5111196;28;20758;-62
2023/08/24 12:12:48;;;;;;;2.85;1.40;;;34.00;1.00;;;;;;5110861;28;20473;-61
2023/08/24 12:15:20;;;;;;;1.80;1.50;;;34.20;1.00;;;;;;5111286;28;20431;-62
2023/08/24 12:17:48;;;;;;;2.63;1.63;;;34.30;1.00;;;;;;5112426;28;20424;-61
2023/08/24 12:20:22;;;;;;;2.90;1.60;;;34.30;1.00;;;;;;5113096;28;20444;-63
2023/08/24 12:22:55;;;;;;;2.03;1.40;;;34.10;1.00;;;;;;5113364;28;20576;-62
2023/08/24 12:25:26;;;;;;;2.70;1.50;;;33.70;1.00;;;;;;5112495;28;20431;-61
2023/08/24 12:27:54;;;;;;;1.70;1.50;;;33.50;1.00;;;;;;5113567;28;20473;-62
2023/08/24 12:30:21;;;;;;;1.80;1.40;;;33.60;1.00;;;;;;5111650;28;20424;-62
2023/08/24 12:32:50;;;;;;;2.47;1.70;;;33.80;1.00;;;;;;5111674;28;20424;-62
2023/08/24 12:35:18;;;;;;;2.97;1.87;;;34.20;1.00;;;;;;5112064;28;20534;-62
2023/08/24 12:37:45;;;;;;;1.85;1.40;;;34.50;1.00;;;;;;5113382;28;20430;-62
2023/08/24 12:40:14;;;;;;;1.50;1.30;;;34.70;1.00;;;;;;5112374;28;20527;-61
2023/08/24 12:42:41;;;;;;;1.70;1.37;;;34.90;1.00;;;;;;5113112;28;20416;-63
2023/08/24 12:45:09;;;;;;;2.28;1.50;;;35.10;1.00;;;;;;5112061;28;20827;-62
2023/08/24 12:47:37;;;;;;;2.20;1.45;;;35.10;1.00;;;;;;5109047;28;20424;-63
2023/08/24 12:50:07;;;;;;;2.40;1.45;;;35.10;1.00;;;;;;5112459;28;20920;-61
2023/08/24 12:52:35;;;;;;;1.40;1.20;;;34.80;1.00;;;;;;5113782;28;20659;-61
2023/08/24 12:55:04;;;;;;;1.90;1.30;;;35.00;1.00;;;;;;5114679;28;20529;-61
2023/08/24 12:57:32;;;;;;;3.10;1.30;;;34.80;1.00;;;;;;5116520;28;20500;-61
2023/08/24 12:59:59;;;;;;;2.20;1.30;;;35.00;1.00;;;;;;5117250;28;20633;-61